This is the latest recevied weather packets stored in our database for station/object E27EKO-13. If no packets are shown the sender has not sent any weather packets the latest 10 day(s).
| Time | Temp. | Humidity | Pressure | Rain* | Wind** | Luminosity | Snow |
|---|---|---|---|---|---|---|---|
| 1788051662 | 40.56° C | 48% | 1008 hPa | - | - | 0 W/m² | - |
| 1788051339 | 41.67° C | 46% | 1008 hPa | - | - | 0 W/m² | - |
| 1788051017 | 41.11° C | 47% | 1008 hPa | - | - | 0 W/m² | - |
| 1788050695 | 41.67° C | 46% | 1008 hPa | - | - | 0 W/m² | - |
| 1788050373 | 41.67° C | 46% | 1008 hPa | - | - | 0 W/m² | - |
| 1788050051 | 40° C | 50% | 1008 hPa | - | - | 0 W/m² | - |
| 1788049729 | 41.11° C | 48% | 1008 hPa | - | - | 0 W/m² | - |
| 1788049407 | 39.44° C | 51% | 1008 hPa | - | - | 0 W/m² | - |
| 1788049085 | 36.67° C | 59% | 1008 hPa | - | - | 0 W/m² | - |
| 1788048977 | 36.11° C | 60% | 1007 hPa | - | - | 0 W/m² | - |
| 1788048655 | 35.56° C | 62% | 1007 hPa | - | - | 0 W/m² | - |
| 1788048333 | 35° C | 64% | 1007 hPa | - | - | 0 W/m² | - |
| 1788048011 | 33.89° C | 69% | 1007 hPa | - | - | 0 W/m² | - |
| 1788047689 | 32.22° C | 75% | 1007 hPa | - | - | 0 W/m² | - |
| 1788047367 | 31.11° C | 81% | 1007 hPa | - | - | 0 W/m² | - |
| 1788047045 | 30.56° C | 85% | 1007 hPa | - | - | 0 W/m² | - |
| 1788046794 | 30° C | 87% | 1007 hPa | - | - | 0 W/m² | - |
| 1788046472 | 30° C | 89% | 1007 hPa | - | - | 0 W/m² | - |
| 1788046150 | 30° C | 90% | 1007 hPa | - | - | 0 W/m² | - |
| 1788045828 | 29.44° C | 90% | 1007 hPa | - | - | 0 W/m² | - |
| 1788045506 | 29.44° C | 91% | 1007 hPa | - | - | 0 W/m² | - |
| 1788045184 | 29.44° C | 92% | 1007 hPa | - | - | 0 W/m² | - |
| 1788044862 | 29.44° C | 91% | 1007 hPa | - | - | 0 W/m² | - |
| 1788044540 | 29.44° C | 91% | 1007 hPa | - | - | 0 W/m² | - |
| 1788044218 | 29.44° C | 91% | 1007 hPa | - | - | 0 W/m² | - |
* Rain since midnight (hover to see other rain measurements)
** Current wind speed in m/s (hover to see current wind gust speed)